Time;durP1;ratioP1;P1;durP2;ratioP2;P2;SDS_P1;SDS_P2;PMS_P1;PMS_P2;Temp;Humidity;BMP_temperature;BMP_pressure;BME280_temperature;BME280_humidity;BME280_pressure;Samples;Min_cycle;Max_cycle;Signal;HPM_P1;HPM_P2
2021/07/12 00:00:08;;;;;;;21.98;3.63;;;43.10;31.50;;;;;;5051640;28;20139;-61
2021/07/12 00:02:35;;;;;;;12.73;2.60;;;43.00;31.40;;;;;;5052195;28;20078;-63
2021/07/12 00:05:02;;;;;;;15.43;3.00;;;42.90;31.40;;;;;;5051969;28;20070;-63
2021/07/12 00:07:28;;;;;;;24.83;3.10;;;42.80;31.70;;;;;;5050232;28;20527;-62
2021/07/12 00:09:59;;;;;;;14.90;3.22;;;42.70;31.90;;;;;;5050932;28;20128;-63
2021/07/12 00:12:25;;;;;;;17.13;3.03;;;42.50;32.20;;;;;;5050495;28;20092;-62
2021/07/12 00:14:52;;;;;;;12.27;3.08;;;42.60;32.30;;;;;;5050279;28;20074;-62
2021/07/12 00:17:18;;;;;;;16.85;3.20;;;42.50;32.50;;;;;;5051065;28;20161;-63
2021/07/12 00:19:45;;;;;;;13.95;2.85;;;42.40;32.40;;;;;;5050833;28;20462;-62
2021/07/12 00:22:11;;;;;;;12.45;2.42;;;42.30;32.30;;;;;;5050974;28;20113;-64
2021/07/12 00:24:47;;;;;;;16.80;2.70;;;42.30;32.60;;;;;;5049516;28;20077;-66
2021/07/12 00:27:14;;;;;;;14.23;3.13;;;42.30;32.30;;;;;;5049594;28;20168;-61
2021/07/12 00:29:40;;;;;;;18.27;3.50;;;42.30;32.90;;;;;;5051265;28;20090;-62
2021/07/12 00:32:07;;;;;;;18.23;3.00;;;42.10;32.70;;;;;;5051063;28;20081;-62
2021/07/12 00:34:34;;;;;;;14.25;2.92;;;42.10;33.10;;;;;;5048955;28;20126;-65
2021/07/12 00:37:08;;;;;;;15.48;3.03;;;42.00;33.10;;;;;;5050006;28;20108;-65
2021/07/12 00:39:38;;;;;;;21.17;3.05;;;42.00;33.30;;;;;;5048670;28;20250;-66
2021/07/12 00:42:05;;;;;;;15.98;3.10;;;42.10;33.30;;;;;;5049166;28;20554;-63
2021/07/12 00:44:32;;;;;;;18.60;3.38;;;41.90;33.30;;;;;;5049293;28;20164;-61
2021/07/12 00:46:59;;;;;;;13.55;2.90;;;41.80;33.90;;;;;;5050552;28;20188;-62
2021/07/12 00:49:25;;;;;;;13.10;3.38;;;41.60;33.90;;;;;;5050508;28;20081;-62
2021/07/12 00:51:54;;;;;;;23.55;3.05;;;41.60;34.60;;;;;;5051298;28;20073;-63
2021/07/12 00:54:27;;;;;;;18.10;3.50;;;41.70;34.20;;;;;;5049218;28;20515;-61
2021/07/12 00:56:57;;;;;;;25.13;3.30;;;41.50;34.30;;;;;;5049435;28;20076;-61
2021/07/12 00:59:24;;;;;;;22.33;3.75;;;41.30;34.40;;;;;;5051531;28;20470;-60
2021/07/12 01:01:51;;;;;;;22.17;3.50;;;41.20;34.60;;;;;;5050966;28;20123;-61
2021/07/12 01:04:18;;;;;;;19.58;2.80;;;41.30;34.90;;;;;;5052933;28;20523;-62
2021/07/12 01:06:45;;;;;;;17.60;3.40;;;41.30;34.60;;;;;;5050317;28;20550;-61
2021/07/12 01:09:11;;;;;;;27.98;3.75;;;41.30;34.30;;;;;;5049907;28;20177;-61
2021/07/12 01:12:20;;;;;;;21.30;3.53;;;41.30;34.50;;;;;;5049891;28;20136;-60
2021/07/12 01:14:47;;;;;;;27.65;3.78;;;41.10;34.40;;;;;;5050629;28;20073;-61
2021/07/12 01:17:16;;;;;;;24.50;3.45;;;41.10;34.70;;;;;;5050503;28;20073;-61
2021/07/12 01:20:08;;;;;;;20.10;3.53;;;40.90;34.50;;;;;;5048519;28;20580;-59
2021/07/12 01:23:12;;;;;;;17.33;3.42;;;40.90;34.80;;;;;;5050086;28;20523;-61
2021/07/12 01:26:30;;;;;;;27.02;4.18;;;40.80;34.50;;;;;;5049895;28;20073;-62
2021/07/12 01:29:14;;;;;;;;;;;40.70;34.90;;;;;;5011533;28;20088;-59
2021/07/12 01:31:59;;;;;;;22.90;3.38;;;40.50;35.10;;;;;;5048556;28;20422;-61
2021/07/12 01:34:51;;;;;;;13.10;2.78;;;40.30;35.00;;;;;;5048987;28;20077;-60
2021/07/12 01:37:45;;;;;;;10.93;3.42;;;40.20;35.10;;;;;;5049124;28;20123;-63
2021/07/12 01:40:45;;;;;;;25.13;3.58;;;40.20;35.20;;;;;;5049371;28;20099;-62
2021/07/12 01:43:32;;;;;;;21.52;3.40;;;40.00;35.50;;;;;;5050027;28;20085;-63
2021/07/12 01:46:08;;;;;;;15.75;3.28;;;40.00;35.70;;;;;;5048466;28;20160;-62
2021/07/12 01:48:49;;;;;;;31.17;3.17;;;39.80;35.70;;;;;;5050249;28;20065;-60
2021/07/12 01:51:16;;;;;;;23.17;4.40;;;39.90;35.80;;;;;;5049428;28;20116;-61
2021/07/12 01:54:01;;;;;;;20.50;3.58;;;39.80;35.70;;;;;;5048140;28;20131;-62
2021/07/12 01:56:34;;;;;;;16.17;3.65;;;39.70;36.20;;;;;;5049367;28;20481;-61
2021/07/12 01:59:23;;;;;;;25.08;3.95;;;39.50;37.40;;;;;;5048603;28;20144;-63
2021/07/12 02:01:51;;;;;;;23.83;3.35;;;39.40;37.10;;;;;;5049216;28;20074;-61
2021/07/12 02:04:25;;;;;;;24.00;4.00;;;39.40;38.20;;;;;;5048043;28;20073;-61
2021/07/12 02:06:53;;;;;;;17.35;3.55;;;39.30;37.50;;;;;;5049297;28;20074;-63
2021/07/12 02:09:21;;;;;;;23.63;3.78;;;39.30;37.60;;;;;;5049049;28;20085;-61
2021/07/12 02:11:49;;;;;;;41.50;5.03;;;39.10;38.10;;;;;;5049589;28;20160;-61
2021/07/12 02:14:19;;;;;;;21.65;3.47;;;38.90;38.30;;;;;;5049297;28;20077;-60
2021/07/12 02:16:49;;;;;;;24.45;3.40;;;38.80;38.40;;;;;;5048626;28;20078;-61
2021/07/12 02:19:17;;;;;;;23.90;4.25;;;38.70;38.70;;;;;;5047113;28;20477;-61
2021/07/12 02:21:46;;;;;;;34.58;4.00;;;38.50;39.00;;;;;;5048748;28;20073;-61
2021/07/12 02:24:17;;;;;;;28.70;4.53;;;38.30;39.30;;;;;;5049055;28;20450;-59
2021/07/12 02:26:44;;;;;;;27.05;4.22;;;38.30;39.60;;;;;;5048716;28;20074;-60
2021/07/12 02:29:12;;;;;;;27.05;3.95;;;38.30;39.50;;;;;;5048799;28;20081;-62
2021/07/12 02:31:40;;;;;;;18.40;3.58;;;38.50;39.00;;;;;;5048181;28;20548;-61
2021/07/12 02:34:08;;;;;;;24.77;4.03;;;38.30;38.80;;;;;;5048687;28;20092;-62
2021/07/12 02:36:36;;;;;;;32.20;3.60;;;38.20;39.10;;;;;;5049673;28;20065;-61
2021/07/12 02:39:04;;;;;;;26.40;3.75;;;38.20;39.50;;;;;;5052296;28;20707;-62
2021/07/12 02:41:31;;;;;;;27.55;3.72;;;38.10;39.90;;;;;;5052474;28;20074;-62
2021/07/12 02:43:59;;;;;;;31.52;3.45;;;38.00;40.10;;;;;;5052859;28;20160;-62
2021/07/12 02:46:28;;;;;;;25.83;4.40;;;37.90;40.10;;;;;;5053342;28;20088;-61
2021/07/12 02:48:55;;;;;;;23.85;5.15;;;37.80;40.20;;;;;;5052827;28;20176;-60
2021/07/12 02:51:44;;;;;;;26.95;6.60;;;37.70;40.20;;;;;;5052700;28;20157;-60
2021/07/12 02:54:13;;;;;;;27.08;5.88;;;37.70;40.30;;;;;;5052147;28;20156;-61
2021/07/12 02:56:39;;;;;;;26.08;6.20;;;37.60;40.50;;;;;;5052370;28;20069;-62
2021/07/12 02:59:06;;;;;;;30.95;4.07;;;37.60;40.50;;;;;;5052363;28;20266;-62
2021/07/12 03:01:32;;;;;;;18.10;3.58;;;37.40;41.00;;;;;;5052264;28;20145;-62
2021/07/12 03:03:59;;;;;;;19.88;4.15;;;37.40;41.30;;;;;;5051906;28;20160;-61
2021/07/12 03:06:31;;;;;;;15.32;3.45;;;37.30;41.20;;;;;;5052667;28;20123;-62
2021/07/12 03:09:13;;;;;;;15.77;3.60;;;37.30;41.50;;;;;;5052120;28;20077;-62
2021/07/12 03:12:02;;;;;;;19.25;3.30;;;37.20;41.60;;;;;;5052197;28;20170;-60
2021/07/12 03:14:56;;;;;;;21.63;3.83;;;37.10;42.10;;;;;;5050642;28;20123;-60
2021/07/12 03:17:25;;;;;;;21.25;3.75;;;37.00;43.30;;;;;;5050523;28;20164;-62
2021/07/12 03:19:56;;;;;;;19.35;3.67;;;37.00;42.80;;;;;;5052588;28;20550;-62
2021/07/12 03:22:24;;;;;;;16.45;3.67;;;37.10;42.90;;;;;;5052667;28;20069;-62
2021/07/12 03:24:53;;;;;;;20.48;4.35;;;36.90;43.00;;;;;;5051788;28;20112;-62
2021/07/12 03:27:22;;;;;;;18.77;4.18;;;36.80;43.60;;;;;;5052273;28;20493;-62
2021/07/12 03:29:51;;;;;;;20.63;4.47;;;36.70;44.00;;;;;;5052755;28;20164;-62
2021/07/12 03:32:25;;;;;;;21.98;4.15;;;36.70;44.70;;;;;;5051175;28;20081;-59
2021/07/12 03:34:53;;;;;;;27.00;4.30;;;36.60;44.40;;;;;;5052293;28;20092;-62
2021/07/12 03:37:20;;;;;;;22.13;5.45;;;36.50;44.40;;;;;;5051815;28;20078;-62
2021/07/12 03:39:49;;;;;;;24.13;5.60;;;36.60;44.40;;;;;;5051585;28;20105;-67
2021/07/12 03:42:17;;;;;;;25.33;6.25;;;36.50;44.70;;;;;;5049680;28;20072;-60
2021/07/12 03:44:44;;;;;;;30.05;10.05;;;36.40;44.90;;;;;;5051280;28;20088;-60
2021/07/12 03:47:28;;;;;;;26.65;11.68;;;36.40;45.00;;;;;;5051684;28;20176;-62
2021/07/12 03:50:05;;;;;;;29.45;6.85;;;36.30;45.60;;;;;;5051105;28;20089;-61
2021/07/12 03:52:41;;;;;;;28.80;7.13;;;36.30;45.30;;;;;;5050519;28;20077;-61
2021/07/12 03:55:08;;;;;;;25.65;6.50;;;36.20;45.50;;;;;;5051456;28;20077;-61
2021/07/12 03:57:34;;;;;;;19.40;6.03;;;36.10;45.70;;;;;;5051848;28;20097;-61
2021/07/12 04:00:01;;;;;;;26.50;5.05;;;36.10;45.80;;;;;;5051524;28;20466;-60
2021/07/12 04:02:27;;;;;;;27.75;5.40;;;36.10;46.00;;;;;;5052249;28;20521;-61
2021/07/12 04:04:54;;;;;;;20.83;4.90;;;36.00;46.20;;;;;;5051203;28;20074;-65
2021/07/12 04:07:20;;;;;;;24.48;4.65;;;35.90;46.40;;;;;;5050271;28;20171;-64
2021/07/12 04:09:47;;;;;;;21.92;4.63;;;35.80;46.60;;;;;;5051160;28;20163;-62
2021/07/12 04:12:22;;;;;;;18.38;4.75;;;35.80;47.20;;;;;;5051610;28;20069;-62
2021/07/12 04:14:51;;;;;;;22.98;5.60;;;35.80;47.10;;;;;;5051201;28;20150;-61
2021/07/12 04:17:18;;;;;;;22.17;4.80;;;35.60;47.40;;;;;;5050788;28;20073;-61
2021/07/12 04:19:46;;;;;;;19.88;4.88;;;35.60;47.30;;;;;;5053957;28;20100;-61
2021/07/12 04:22:12;;;;;;;25.23;5.05;;;35.60;47.50;;;;;;5050207;28;20422;-61
2021/07/12 04:24:39;;;;;;;21.77;5.57;;;35.50;47.70;;;;;;5051233;28;20071;-61
2021/07/12 04:27:06;;;;;;;22.67;5.18;;;35.60;47.90;;;;;;5051728;28;20085;-62
2021/07/12 04:29:33;;;;;;;24.35;4.93;;;35.60;48.00;;;;;;5050876;28;20077;-61
2021/07/12 04:32:01;;;;;;;20.35;5.10;;;35.50;48.20;;;;;;5050469;28;20072;-61
2021/07/12 04:34:30;;;;;;;25.13;5.82;;;35.50;48.40;;;;;;5050682;28;20074;-62
2021/07/12 04:36:57;;;;;;;20.02;5.72;;;35.50;48.50;;;;;;5050274;28;20078;-62
2021/07/12 04:39:24;;;;;;;20.23;5.43;;;35.40;49.10;;;;;;5057437;28;20525;-61
2021/07/12 04:41:50;;;;;;;22.55;5.63;;;35.30;48.90;;;;;;5049981;28;20104;-61
2021/07/12 04:44:17;;;;;;;23.67;4.82;;;35.30;49.20;;;;;;5049835;28;20085;-60
2021/07/12 04:46:44;;;;;;;21.55;5.88;;;35.30;49.50;;;;;;5050534;28;20084;-62
2021/07/12 04:49:11;;;;;;;26.60;5.80;;;35.20;49.70;;;;;;5051915;28;20082;-61
2021/07/12 04:51:38;;;;;;;24.42;5.35;;;35.10;49.90;;;;;;5050324;28;20551;-62
2021/07/12 04:54:06;;;;;;;29.90;5.85;;;35.10;50.30;;;;;;5048631;28;20160;-62
2021/07/12 04:56:33;;;;;;;19.70;4.97;;;35.00;50.60;;;;;;5052475;28;20073;-62
2021/07/12 04:59:04;;;;;;;22.10;5.63;;;34.90;50.80;;;;;;5050119;28;20113;-63
2021/07/12 05:01:34;;;;;;;18.33;5.60;;;34.90;50.80;;;;;;5050677;28;20073;-63
2021/07/12 05:04:02;;;;;;;20.20;4.65;;;34.80;50.90;;;;;;5049601;28;20084;-61
2021/07/12 05:06:30;;;;;;;16.50;4.75;;;34.80;51.10;;;;;;5049942;28;20070;-59
2021/07/12 05:08:57;;;;;;;30.42;5.78;;;34.70;51.10;;;;;;5050973;28;20424;-61
2021/07/12 05:11:26;;;;;;;19.10;5.03;;;34.60;51.20;;;;;;5049988;28;20068;-60
2021/07/12 05:13:53;;;;;;;18.95;5.40;;;34.60;51.50;;;;;;5051087;28;20070;-59
2021/07/12 05:16:20;;;;;;;18.73;5.10;;;34.60;51.60;;;;;;5050404;28;20100;-59
2021/07/12 05:18:48;;;;;;;19.70;4.97;;;34.60;51.40;;;;;;5050603;28;20465;-59
2021/07/12 05:21:15;;;;;;;25.52;5.43;;;34.60;51.20;;;;;;5049827;28;20078;-62
2021/07/12 05:23:42;;;;;;;16.17;4.50;;;34.60;51.20;;;;;;5050380;28;20073;-56
2021/07/12 05:26:08;;;;;;;22.52;4.68;;;34.50;51.20;;;;;;5051017;28;20081;-58
2021/07/12 05:28:37;;;;;;;24.20;5.07;;;34.50;51.30;;;;;;5050545;28;20152;-60
2021/07/12 05:31:05;;;;;;;19.20;5.15;;;34.60;51.20;;;;;;5051363;28;20097;-59
2021/07/12 05:33:32;;;;;;;22.83;5.03;;;34.60;51.20;;;;;;5050208;28;20073;-59
2021/07/12 05:35:59;;;;;;;24.45;5.03;;;34.50;51.40;;;;;;5050113;28;20073;-59
2021/07/12 05:38:25;;;;;;;27.25;5.35;;;34.40;51.70;;;;;;5049703;28;20078;-60
2021/07/12 05:40:52;;;;;;;24.67;5.82;;;34.40;51.90;;;;;;5049890;28;20077;-59
2021/07/12 05:43:19;;;;;;;19.77;4.72;;;34.40;51.80;;;;;;5049295;28;20135;-58
2021/07/12 05:45:45;;;;;;;20.92;5.13;;;34.30;51.70;;;;;;5048686;28;20168;-60
2021/07/12 05:48:12;;;;;;;20.05;5.03;;;34.40;51.60;;;;;;5050107;28;20062;-59
2021/07/12 05:50:38;;;;;;;21.65;4.93;;;34.40;51.40;;;;;;5050386;28;20096;-58
2021/07/12 05:53:05;;;;;;;26.17;5.07;;;34.30;51.20;;;;;;5050403;28;20081;-59
2021/07/12 05:55:32;;;;;;;18.90;5.70;;;34.30;51.20;;;;;;5049670;28;20460;-60
2021/07/12 05:57:59;;;;;;;21.83;5.10;;;34.30;51.30;;;;;;5049532;28;20166;-58
2021/07/12 06:00:25;;;;;;;24.90;4.55;;;34.20;51.50;;;;;;5051044;28;20093;-59
2021/07/12 06:02:52;;;;;;;16.88;4.55;;;34.10;51.70;;;;;;5049886;28;20519;-59
2021/07/12 06:05:19;;;;;;;19.83;4.22;;;34.00;52.10;;;;;;5049383;28;20074;-60
2021/07/12 06:07:47;;;;;;;21.73;4.28;;;34.00;52.50;;;;;;5049386;28;20073;-60
2021/07/12 06:10:14;;;;;;;21.33;5.00;;;33.90;52.90;;;;;;5049840;28;20430;-61
2021/07/12 06:12:41;;;;;;;27.02;5.10;;;33.90;53.20;;;;;;5058520;28;20080;-60
2021/07/12 06:15:09;;;;;;;18.25;4.32;;;33.90;53.60;;;;;;5053808;28;20176;-60
2021/07/12 06:17:36;;;;;;;19.48;3.85;;;33.80;53.80;;;;;;5052913;28;20097;-57
2021/07/12 06:20:05;;;;;;;19.17;4.15;;;33.60;54.30;;;;;;5054168;28;20474;-60
2021/07/12 06:22:32;;;;;;;25.35;4.00;;;33.60;54.50;;;;;;5054756;28;20073;-59
2021/07/12 06:24:58;;;;;;;19.30;4.72;;;33.50;54.70;;;;;;5053430;28;20077;-59
2021/07/12 06:27:25;;;;;;;20.85;5.97;;;33.40;54.90;;;;;;5053533;28;20065;-59
2021/07/12 06:29:52;;;;;;;22.67;5.30;;;33.40;55.20;;;;;;5053957;28;20083;-58
2021/07/12 06:32:18;;;;;;;30.77;6.65;;;33.40;55.50;;;;;;5053410;28;20511;-57
2021/07/12 06:34:45;;;;;;;28.60;7.65;;;33.30;55.60;;;;;;5053222;28;20156;-58
2021/07/12 06:37:12;;;;;;;29.80;8.63;;;33.30;55.70;;;;;;5053685;28;20416;-58
2021/07/12 06:39:39;;;;;;;30.00;8.63;;;33.30;55.90;;;;;;5053454;28;20097;-60
2021/07/12 06:42:07;;;;;;;25.67;7.68;;;33.30;56.10;;;;;;5052866;28;20077;-60
2021/07/12 06:44:34;;;;;;;20.35;6.93;;;33.10;56.50;;;;;;5051578;28;20078;-61
2021/07/12 06:47:00;;;;;;;22.10;7.05;;;33.10;56.80;;;;;;5052684;28;20404;-58
2021/07/12 06:49:27;;;;;;;22.30;6.63;;;33.10;57.20;;;;;;5053625;28;20080;-60
2021/07/12 06:51:53;;;;;;;22.08;5.80;;;33.00;57.40;;;;;;5054290;28;20087;-59
2021/07/12 06:54:20;;;;;;;18.33;4.75;;;32.90;58.40;;;;;;5053319;28;20514;-59
2021/07/12 06:56:47;;;;;;;21.35;3.97;;;32.90;57.90;;;;;;5052269;28;20079;-57
2021/07/12 06:59:13;;;;;;;23.27;4.35;;;33.00;57.80;;;;;;5056804;28;20220;-57
2021/07/12 07:01:40;;;;;;;22.27;4.03;;;33.00;58.10;;;;;;5053877;28;20145;-60
2021/07/12 07:04:07;;;;;;;14.85;3.70;;;32.90;58.80;;;;;;5052479;28;20485;-59
2021/07/12 07:06:33;;;;;;;21.33;3.53;;;32.90;59.70;;;;;;5051561;28;20647;-59
2021/07/12 07:09:00;;;;;;;12.30;3.30;;;32.70;59.90;;;;;;5052432;28;20435;-58
2021/07/12 07:11:26;;;;;;;18.67;3.90;;;32.70;60.60;;;;;;5052347;28;20077;-60
2021/07/12 07:13:53;;;;;;;18.45;4.07;;;32.70;60.90;;;;;;5053942;28;20505;-59
2021/07/12 07:16:19;;;;;;;13.10;3.15;;;32.60;61.30;;;;;;5052301;28;20541;-56
2021/07/12 07:18:46;;;;;;;15.00;3.60;;;32.60;61.50;;;;;;5052199;28;20176;-58
2021/07/12 07:21:12;;;;;;;22.75;4.05;;;32.60;61.80;;;;;;5052536;28;20482;-58
2021/07/12 07:23:39;;;;;;;21.75;4.38;;;32.60;61.90;;;;;;5051111;28;20073;-58
2021/07/12 07:26:07;;;;;;;15.73;3.83;;;32.60;62.20;;;;;;5052097;28;20555;-58
2021/07/12 07:28:33;;;;;;;17.15;3.55;;;32.60;62.40;;;;;;5051753;28;20139;-59
2021/07/12 07:31:00;;;;;;;14.20;3.45;;;32.60;62.60;;;;;;5055527;28;20165;-57
2021/07/12 07:33:29;;;;;;;19.33;4.53;;;32.50;63.00;;;;;;5051959;28;20530;-60
2021/07/12 07:35:57;;;;;;;18.15;3.95;;;32.50;63.20;;;;;;5052290;28;20077;-60
2021/07/12 07:38:24;;;;;;;18.17;4.68;;;32.40;63.40;;;;;;5053212;28;20135;-58
2021/07/12 07:40:51;;;;;;;14.68;4.13;;;32.30;63.70;;;;;;5052121;28;20590;-56
2021/07/12 07:43:17;;;;;;;17.33;4.18;;;32.40;63.90;;;;;;5052355;28;20188;-60
2021/07/12 07:45:44;;;;;;;17.80;4.82;;;32.40;64.10;;;;;;5051416;28;20588;-60
2021/07/12 07:48:11;;;;;;;17.63;5.43;;;32.40;64.40;;;;;;5051268;28;20470;-60
2021/07/12 07:50:39;;;;;;;22.33;5.63;;;32.30;64.40;;;;;;5051179;28;20073;-59
2021/07/12 07:53:07;;;;;;;19.20;5.40;;;32.30;64.60;;;;;;5051739;28;20084;-60
2021/07/12 07:55:34;;;;;;;23.38;6.65;;;32.30;65.00;;;;;;5051032;28;20074;-59
2021/07/12 07:58:00;;;;;;;30.60;8.02;;;32.30;65.10;;;;;;5051017;28;20186;-59
2021/07/12 08:00:28;;;;;;;23.48;7.65;;;32.20;65.50;;;;;;5051626;28;20098;-58
2021/07/12 08:02:54;;;;;;;22.13;7.55;;;32.20;65.80;;;;;;5051920;28;20702;-58
2021/07/12 08:05:21;;;;;;;17.02;5.32;;;32.10;66.00;;;;;;5051266;28;20127;-60
2021/07/12 08:07:48;;;;;;;19.65;5.30;;;32.10;66.20;;;;;;5051612;28;20073;-59
2021/07/12 08:10:18;;;;;;;17.20;4.82;;;32.10;66.50;;;;;;5051525;28;20078;-60
2021/07/12 08:12:46;;;;;;;17.35;6.15;;;32.10;66.80;;;;;;5051045;28;20515;-58
2021/07/12 08:15:14;;;;;;;16.30;5.38;;;32.00;67.10;;;;;;5051411;28;20081;-59
2021/07/12 08:17:41;;;;;;;22.92;6.20;;;32.10;67.40;;;;;;5050965;28;20139;-58
2021/07/12 08:20:11;;;;;;;23.02;5.55;;;32.10;67.50;;;;;;5050556;28;20105;-58
2021/07/12 08:22:38;;;;;;;19.20;4.22;;;32.00;67.80;;;;;;5050581;28;20127;-59
2021/07/12 08:25:07;;;;;;;18.75;4.90;;;32.00;68.30;;;;;;5050610;28;20078;-59
2021/07/12 08:27:35;;;;;;;20.42;5.38;;;32.00;68.60;;;;;;5050995;28;20085;-57
2021/07/12 08:30:03;;;;;;;24.27;6.03;;;32.00;68.60;;;;;;5051072;28;20093;-57
2021/07/12 08:32:30;;;;;;;22.13;6.15;;;31.90;68.90;;;;;;5052139;28;20061;-60
2021/07/12 08:34:56;;;;;;;18.58;5.50;;;31.90;69.30;;;;;;5050710;28;20127;-61
2021/07/12 08:37:24;;;;;;;21.45;6.20;;;31.80;69.50;;;;;;5050661;28;20093;-60
2021/07/12 08:39:50;;;;;;;18.25;5.72;;;31.80;69.80;;;;;;5050757;28;20096;-59
2021/07/12 08:42:19;;;;;;;21.52;5.53;;;31.70;70.20;;;;;;5051197;28;20073;-58
2021/07/12 08:44:45;;;;;;;18.15;4.57;;;31.70;70.20;;;;;;5050627;28;20115;-58
2021/07/12 08:47:12;;;;;;;14.18;3.72;;;31.70;70.20;;;;;;5050209;28;20074;-55
2021/07/12 08:49:38;;;;;;;19.33;3.95;;;31.70;70.20;;;;;;5051506;28;20089;-58
2021/07/12 08:52:06;;;;;;;23.70;5.22;;;31.60;70.80;;;;;;5051455;28;20086;-60
2021/07/12 08:54:34;;;;;;;22.30;4.93;;;31.60;70.80;;;;;;5051880;28;20077;-59
2021/07/12 08:57:00;;;;;;;18.30;4.10;;;31.60;71.00;;;;;;5051015;28;20427;-59
2021/07/12 08:59:40;;;;;;;13.90;3.78;;;31.70;71.10;;;;;;5050598;28;20105;-57
2021/07/12 09:02:13;;;;;;;14.70;3.70;;;31.60;71.10;;;;;;5049680;28;20131;-58
2021/07/12 09:04:41;;;;;;;20.45;3.55;;;31.60;71.80;;;;;;5049146;28;20160;-59
2021/07/12 09:07:11;;;;;;;23.02;5.03;;;31.50;72.10;;;;;;5049583;28;20115;-60
2021/07/12 09:09:38;;;;;;;15.25;3.78;;;31.40;72.50;;;;;;5050535;28;20120;-58
2021/07/12 09:12:14;;;;;;;17.25;4.45;;;31.40;73.20;;;;;;5050943;28;20085;-59
2021/07/12 09:14:42;;;;;;;14.63;3.87;;;31.40;73.40;;;;;;5049520;28;20077;-56
2021/07/12 09:17:10;;;;;;;20.55;4.00;;;31.40;73.70;;;;;;5050356;28;20097;-59
2021/07/12 09:19:39;;;;;;;19.13;3.75;;;31.40;73.90;;;;;;5050326;28;21427;-56
2021/07/12 09:22:07;;;;;;;17.05;4.03;;;31.40;74.00;;;;;;5049499;28;20092;-57
2021/07/12 09:24:49;;;;;;;17.80;3.63;;;31.40;74.70;;;;;;5049218;28;20077;-59
2021/07/12 09:27:23;;;;;;;14.95;3.58;;;31.30;75.10;;;;;;5049640;28;20527;-59
2021/07/12 09:29:58;;;;;;;16.63;3.75;;;31.30;75.40;;;;;;5048837;28;20442;-59
2021/07/12 09:32:28;;;;;;;14.38;3.90;;;31.30;75.60;;;;;;5048676;28;20582;-59
2021/07/12 09:35:00;;;;;;;15.10;3.83;;;31.30;75.70;;;;;;5050225;28;20085;-57
2021/07/12 09:37:27;;;;;;;16.00;4.38;;;31.30;76.30;;;;;;5050127;28;20539;-60
2021/07/12 09:39:55;;;;;;;17.90;3.88;;;31.30;76.40;;;;;;5049286;28;20093;-59
2021/07/12 09:42:26;;;;;;;16.90;4.50;;;31.20;76.80;;;;;;5049980;28;20419;-58
2021/07/12 09:44:56;;;;;;;17.20;4.53;;;31.20;77.10;;;;;;5049849;28;20539;-58
2021/07/12 09:47:25;;;;;;;19.65;4.32;;;31.20;77.40;;;;;;5049021;28;20542;-58
2021/07/12 09:49:59;;;;;;;20.15;4.15;;;31.10;77.90;;;;;;5049158;28;20074;-59
2021/07/12 09:52:25;;;;;;;22.50;4.35;;;31.10;78.00;;;;;;5049988;28;20074;-59
2021/07/12 09:54:52;;;;;;;21.90;4.22;;;31.00;78.30;;;;;;5049961;28;20081;-57
2021/07/12 09:57:21;;;;;;;21.50;4.10;;;31.00;78.70;;;;;;5054589;28;20095;-56
2021/07/12 10:00:08;;;;;;;20.33;4.20;;;30.90;78.80;;;;;;5048283;28;20221;-60
2021/07/12 10:02:36;;;;;;;20.50;4.13;;;30.90;79.10;;;;;;5049916;28;20081;-59
2021/07/12 10:05:06;;;;;;;15.32;3.45;;;30.90;78.80;;;;;;5049135;28;20426;-60
2021/07/12 10:07:33;;;;;;;22.48;4.65;;;30.90;78.60;;;;;;5051908;28;20069;-60
2021/07/12 10:10:03;;;;;;;19.17;4.03;;;30.90;78.50;;;;;;5047797;28;20160;-58
2021/07/12 10:12:30;;;;;;;17.58;4.05;;;31.00;78.70;;;;;;5049955;28;20089;-61
2021/07/12 10:14:57;;;;;;;21.50;4.38;;;31.00;79.60;;;;;;5048888;28;20078;-60
2021/07/12 10:17:24;;;;;;;21.13;4.15;;;30.90;80.30;;;;;;5049950;28;20066;-60
2021/07/12 10:19:50;;;;;;;15.93;4.00;;;30.90;81.10;;;;;;5051035;28;20104;-56
2021/07/12 10:22:21;;;;;;;20.00;3.75;;;30.90;81.70;;;;;;5049754;28;20101;-58
2021/07/12 10:24:48;;;;;;;18.00;3.90;;;30.90;82.70;;;;;;5048506;28;20081;-60
2021/07/12 10:27:26;;;;;;;24.70;3.83;;;30.90;83.60;;;;;;5048529;28;20073;-57
2021/07/12 10:29:55;;;;;;;13.95;3.88;;;30.80;85.00;;;;;;5049196;28;20131;-60
2021/07/12 10:32:26;;;;;;;26.23;4.35;;;30.70;86.10;;;;;;5049301;28;20592;-60
2021/07/12 10:34:56;;;;;;;19.20;4.38;;;30.70;86.60;;;;;;5049665;28;20078;-60
2021/07/12 10:37:33;;;;;;;20.98;4.00;;;30.70;87.50;;;;;;5049185;28;20594;-56
2021/07/12 10:40:05;;;;;;;20.55;4.70;;;30.80;87.70;;;;;;5048279;28;20554;-57
2021/07/12 10:42:50;;;;;;;18.65;4.68;;;30.80;88.10;;;;;;5049604;28;20070;-58
2021/07/12 10:45:23;;;;;;;21.48;4.82;;;30.80;88.40;;;;;;5048991;28;20250;-59
2021/07/12 10:48:04;;;;;;;19.95;4.82;;;30.80;88.90;;;;;;5047738;28;20078;-57
2021/07/12 10:50:50;;;;;;;21.58;6.07;;;30.80;89.50;;;;;;5048620;28;20525;-58
2021/07/12 10:53:20;;;;;;;19.67;6.80;;;30.70;89.90;;;;;;5048835;28;20168;-59
2021/07/12 10:55:59;;;;;;;20.08;6.40;;;30.70;90.10;;;;;;5049712;28;20074;-57
2021/07/12 10:58:26;;;;;;;19.30;5.55;;;30.70;90.10;;;;;;5051383;28;20135;-55
2021/07/12 11:01:04;;;;;;;18.83;4.30;;;30.70;90.10;;;;;;5053215;28;20077;-56
2021/07/12 11:03:50;;;;;;;20.02;4.47;;;30.80;89.70;;;;;;5052761;28;20077;-59
2021/07/12 11:06:26;;;;;;;16.57;4.10;;;30.80;89.20;;;;;;5052341;28;20517;-58
2021/07/12 11:08:55;;;;;;;19.60;3.60;;;30.70;89.30;;;;;;5051565;28;20135;-57
2021/07/12 11:11:24;;;;;;;22.05;4.63;;;30.70;89.20;;;;;;5053144;28;20592;-58
2021/07/12 11:13:57;;;;;;;22.67;5.40;;;30.70;89.50;;;;;;5052318;28;20082;-59
2021/07/12 11:16:26;;;;;;;20.42;4.43;;;30.60;89.40;;;;;;5053133;28;20101;-60
2021/07/12 11:18:53;;;;;;;20.45;4.90;;;30.70;89.90;;;;;;5051059;28;20089;-59
2021/07/12 11:21:35;;;;;;;26.63;5.43;;;30.60;89.70;;;;;;5052966;28;20080;-59
2021/07/12 11:24:10;;;;;;;18.35;4.57;;;30.70;89.40;;;;;;5051403;28;20081;-59
2021/07/12 11:26:39;;;;;;;21.17;5.00;;;30.70;89.10;;;;;;5052218;28;20081;-59
2021/07/12 11:29:19;;;;;;;18.02;4.40;;;30.70;89.00;;;;;;5041431;28;20081;-57
2021/07/12 11:32:07;;;;;;;22.80;4.38;;;30.70;88.60;;;;;;5052359;28;20097;-60
2021/07/12 11:34:44;;;;;;;19.00;4.88;;;30.60;88.90;;;;;;5051347;28;20077;-60
2021/07/12 11:37:13;;;;;;;30.15;5.15;;;30.70;89.10;;;;;;5052433;28;20596;-57
2021/07/12 11:39:42;;;;;;;20.50;4.63;;;30.60;89.10;;;;;;5056899;28;20552;-59
2021/07/12 11:42:20;;;;;;;19.13;4.20;;;30.60;89.60;;;;;;5058080;28;20081;-58
2021/07/12 11:45:04;;;;;;;15.15;4.20;;;30.70;89.70;;;;;;5051803;28;20088;-57
2021/07/12 11:47:37;;;;;;;22.88;4.80;;;30.70;90.20;;;;;;5052210;28;20069;-59
2021/07/12 11:50:15;;;;;;;18.85;4.07;;;30.70;89.60;;;;;;5051266;28;20077;-59
2021/07/12 11:52:47;;;;;;;22.40;4.40;;;30.70;89.60;;;;;;5051432;28;20414;-60
2021/07/12 11:55:18;;;;;;;20.90;4.03;;;30.60;89.20;;;;;;5052078;28;20073;-60
2021/07/12 11:57:48;;;;;;;23.17;4.22;;;30.70;88.80;;;;;;5051641;28;20107;-60
2021/07/12 12:00:25;;;;;;;25.50;5.15;;;30.70;87.50;;;;;;5051730;28;20093;-58
2021/07/12 12:03:00;;;;;;;20.30;3.95;;;30.70;87.00;;;;;;5050291;28;20251;-60
2021/07/12 12:05:29;;;;;;;19.98;4.45;;;30.70;86.20;;;;;;5051503;28;20087;-58
2021/07/12 12:07:59;;;;;;;16.35;3.53;;;30.70;85.40;;;;;;5051272;28;20434;-56
2021/07/12 12:10:27;;;;;;;15.93;4.38;;;30.70;85.30;;;;;;5051267;28;20427;-54
2021/07/12 12:12:59;;;;;;;24.77;3.92;;;30.70;84.60;;;;;;5050886;28;20600;-59
2021/07/12 12:15:32;;;;;;;16.48;4.00;;;30.70;84.40;;;;;;5050988;28;20077;-61
2021/07/12 12:18:09;;;;;;;35.78;5.35;;;30.70;83.90;;;;;;5050764;28;20430;-53
2021/07/12 12:20:39;;;;;;;33.53;4.72;;;30.70;83.10;;;;;;5050404;28;20097;-58
2021/07/12 12:23:15;;;;;;;24.20;3.88;;;30.70;83.00;;;;;;5051404;28;20100;-57
2021/07/12 12:25:47;;;;;;;30.40;4.60;;;30.70;82.90;;;;;;5052095;28;20088;-59
2021/07/12 12:28:25;;;;;;;27.05;4.93;;;30.70;82.40;;;;;;5051640;28;20160;-59
2021/07/12 12:30:53;;;;;;;27.13;4.35;;;30.70;82.20;;;;;;5050840;28;20123;-54
2021/07/12 12:33:34;;;;;;;36.05;4.45;;;30.70;81.40;;;;;;5051262;28;20081;-58
2021/07/12 12:36:06;;;;;;;33.55;4.70;;;30.80;81.40;;;;;;5050372;28;20105;-59
2021/07/12 12:38:33;;;;;;;29.48;4.75;;;30.80;81.20;;;;;;5050454;28;20077;-61
2021/07/12 12:41:06;;;;;;;25.85;3.80;;;30.80;81.10;;;;;;5051631;28;20073;-59
2021/07/12 12:43:34;;;;;;;33.58;4.40;;;30.70;80.30;;;;;;5049926;28;20069;-57
2021/07/12 12:46:04;;;;;;;35.60;4.55;;;30.70;79.80;;;;;;5050781;28;20073;-59
2021/07/12 12:48:42;;;;;;;22.27;4.45;;;30.80;80.10;;;;;;5049719;28;20442;-58
2021/07/12 12:51:23;;;;;;;29.35;4.25;;;30.80;79.40;;;;;;5051234;28;20088;-58
2021/07/12 12:54:11;;;;;;;24.27;4.25;;;30.80;79.30;;;;;;5050412;28;20487;-58